sensor_id;sensor_type;location;lat;lon;timestamp;pressure;altitude;pressure_sealevel;temperature;humidity
73566;BME280;61846;52.970;-3.168;2023-11-21T00:00:55;100912.78;;;11.30;59.29
73566;BME280;61846;52.970;-3.168;2023-11-21T00:03:20;100915.91;;;10.62;61.93
73566;BME280;61846;52.970;-3.168;2023-11-21T00:05:46;100922.96;;;10.17;62.65
73566;BME280;61846;52.970;-3.168;2023-11-21T00:08:11;100923.21;;;10.90;61.24
73566;BME280;61846;52.970;-3.168;2023-11-21T00:10:37;100924.29;;;10.69;61.42
73566;BME280;61846;52.970;-3.168;2023-11-21T00:13:03;100928.49;;;10.45;62.14
73566;BME280;61846;52.970;-3.168;2023-11-21T00:15:28;100932.56;;;10.11;63.59
73566;BME280;61846;52.970;-3.168;2023-11-21T00:17:54;100933.99;;;11.19;59.86
73566;BME280;61846;52.970;-3.168;2023-11-21T00:20:20;100942.75;;;11.69;57.85
73566;BME280;61846;52.970;-3.168;2023-11-21T00:22:45;100948.33;;;11.39;58.49
73566;BME280;61846;52.970;-3.168;2023-11-21T00:25:15;100963.67;;;11.11;61.86
73566;BME280;61846;52.970;-3.168;2023-11-21T00:27:36;100963.46;;;11.05;59.29
73566;BME280;61846;52.970;-3.168;2023-11-21T00:30:01;100969.80;;;11.54;59.28
73566;BME280;61846;52.970;-3.168;2023-11-21T00:32:27;100972.84;;;10.92;58.98
73566;BME280;61846;52.970;-3.168;2023-11-21T00:34:52;100985.09;;;11.17;59.17
73566;BME280;61846;52.970;-3.168;2023-11-21T00:37:18;100988.66;;;11.39;58.01
73566;BME280;61846;52.970;-3.168;2023-11-21T00:39:43;100993.06;;;11.39;56.96
73566;BME280;61846;52.970;-3.168;2023-11-21T00:42:09;100998.42;;;10.24;61.70
73566;BME280;61846;52.970;-3.168;2023-11-21T00:44:37;100999.34;;;11.62;57.45
73566;BME280;61846;52.970;-3.168;2023-11-21T00:47:00;100995.62;;;11.28;59.32
73566;BME280;61846;52.970;-3.168;2023-11-21T00:49:25;100996.27;;;10.44;59.81
73566;BME280;61846;52.970;-3.168;2023-11-21T00:51:51;101000.62;;;11.57;57.64
73566;BME280;61846;52.970;-3.168;2023-11-21T00:54:16;101006.91;;;12.10;56.82
73566;BME280;61846;52.970;-3.168;2023-11-21T00:56:42;101017.10;;;11.86;56.21
73566;BME280;61846;52.970;-3.168;2023-11-21T00:59:07;101020.49;;;11.74;56.64
73566;BME280;61846;52.970;-3.168;2023-11-21T01:01:33;101023.70;;;12.14;56.22
73566;BME280;61846;52.970;-3.168;2023-11-21T01:03:58;101025.84;;;10.16;59.92
73566;BME280;61846;52.970;-3.168;2023-11-21T01:06:24;101031.59;;;11.18;58.02
73566;BME280;61846;52.970;-3.168;2023-11-21T01:08:50;101033.66;;;11.04;58.88
73566;BME280;61846;52.970;-3.168;2023-11-21T01:11:15;101034.36;;;11.40;57.49
73566;BME280;61846;52.970;-3.168;2023-11-21T01:13:41;101043.28;;;11.25;59.06
73566;BME280;61846;52.970;-3.168;2023-11-21T01:16:07;101048.30;;;10.47;60.27
73566;BME280;61846;52.970;-3.168;2023-11-21T01:18:32;101043.36;;;10.39;61.64
73566;BME280;61846;52.970;-3.168;2023-11-21T01:20:57;101048.87;;;10.09;62.80
73566;BME280;61846;52.970;-3.168;2023-11-21T01:23:23;101051.83;;;11.11;59.58
73566;BME280;61846;52.970;-3.168;2023-11-21T01:25:49;101052.88;;;11.58;58.31
73566;BME280;61846;52.970;-3.168;2023-11-21T01:28:14;101048.02;;;11.15;59.09
73566;BME280;61846;52.970;-3.168;2023-11-21T01:30:39;101048.89;;;10.07;60.84
73566;BME280;61846;52.970;-3.168;2023-11-21T01:33:05;101052.80;;;10.70;58.92
73566;BME280;61846;52.970;-3.168;2023-11-21T01:35:30;101059.65;;;10.61;59.19
73566;BME280;61846;52.970;-3.168;2023-11-21T01:37:56;101065.84;;;10.93;58.84
73566;BME280;61846;52.970;-3.168;2023-11-21T01:40:22;101060.57;;;10.12;59.20
73566;BME280;61846;52.970;-3.168;2023-11-21T01:42:47;101068.24;;;9.85;61.34
73566;BME280;61846;52.970;-3.168;2023-11-21T01:45:13;101071.28;;;10.42;60.41
73566;BME280;61846;52.970;-3.168;2023-11-21T01:47:38;101073.08;;;10.72;59.24
73566;BME280;61846;52.970;-3.168;2023-11-21T01:50:04;101078.93;;;10.22;60.14
73566;BME280;61846;52.970;-3.168;2023-11-21T01:52:29;101075.65;;;11.40;56.49
73566;BME280;61846;52.970;-3.168;2023-11-21T01:54:55;101077.79;;;11.04;57.08
73566;BME280;61846;52.970;-3.168;2023-11-21T01:57:20;101082.54;;;11.72;55.96
73566;BME280;61846;52.970;-3.168;2023-11-21T01:59:47;101086.17;;;12.18;54.47
73566;BME280;61846;52.970;-3.168;2023-11-21T02:02:11;101080.76;;;11.60;54.87
73566;BME280;61846;52.970;-3.168;2023-11-21T02:04:37;101086.49;;;10.92;55.96
73566;BME280;61846;52.970;-3.168;2023-11-21T02:07:03;101086.03;;;11.36;55.08
73566;BME280;61846;52.970;-3.168;2023-11-21T02:09:28;101090.85;;;11.51;55.36
73566;BME280;61846;52.970;-3.168;2023-11-21T02:11:54;101092.89;;;10.97;56.65
73566;BME280;61846;52.970;-3.168;2023-11-21T02:14:19;101095.87;;;11.00;57.06
73566;BME280;61846;52.970;-3.168;2023-11-21T02:16:44;101104.01;;;10.12;58.72
73566;BME280;61846;52.970;-3.168;2023-11-21T02:19:11;101107.17;;;10.14;59.40
73566;BME280;61846;52.970;-3.168;2023-11-21T02:21:36;101125.06;;;9.22;60.66
73566;BME280;61846;52.970;-3.168;2023-11-21T02:24:01;101129.33;;;10.04;59.30
73566;BME280;61846;52.970;-3.168;2023-11-21T02:26:27;101133.56;;;9.87;59.77
73566;BME280;61846;52.970;-3.168;2023-11-21T02:28:53;101138.67;;;9.71;59.53
73566;BME280;61846;52.970;-3.168;2023-11-21T02:31:18;101144.64;;;10.31;58.19
73566;BME280;61846;52.970;-3.168;2023-11-21T02:33:43;101145.21;;;10.15;57.80
73566;BME280;61846;52.970;-3.168;2023-11-21T02:36:09;101152.53;;;10.68;56.48
73566;BME280;61846;52.970;-3.168;2023-11-21T02:38:34;101163.33;;;10.74;54.77
73566;BME280;61846;52.970;-3.168;2023-11-21T02:41:00;101172.43;;;11.75;52.12
73566;BME280;61846;52.970;-3.168;2023-11-21T02:43:25;101168.07;;;11.95;51.79
73566;BME280;61846;52.970;-3.168;2023-11-21T02:45:51;101170.53;;;12.47;51.38
73566;BME280;61846;52.970;-3.168;2023-11-21T02:48:16;101168.14;;;11.71;50.88
73566;BME280;61846;52.970;-3.168;2023-11-21T02:50:42;101168.15;;;12.09;50.79
73566;BME280;61846;52.970;-3.168;2023-11-21T02:53:07;101178.73;;;12.04;49.50
73566;BME280;61846;52.970;-3.168;2023-11-21T02:55:33;101180.09;;;10.32;51.94
73566;BME280;61846;52.970;-3.168;2023-11-21T02:57:58;101181.11;;;12.12;50.75
73566;BME280;61846;52.970;-3.168;2023-11-21T03:00:24;101184.77;;;11.95;49.43
73566;BME280;61846;52.970;-3.168;2023-11-21T03:02:50;101184.15;;;12.04;49.60
73566;BME280;61846;52.970;-3.168;2023-11-21T03:05:16;101194.56;;;11.82;50.18
73566;BME280;61846;52.970;-3.168;2023-11-21T03:07:41;101189.94;;;11.51;50.50
73566;BME280;61846;52.970;-3.168;2023-11-21T03:10:07;101196.83;;;11.65;50.31
73566;BME280;61846;52.970;-3.168;2023-11-21T03:12:32;101202.74;;;10.67;52.08
73566;BME280;61846;52.970;-3.168;2023-11-21T03:14:57;101203.24;;;11.38;50.70
73566;BME280;61846;52.970;-3.168;2023-11-21T03:17:24;101204.49;;;12.14;49.64
73566;BME280;61846;52.970;-3.168;2023-11-21T03:19:48;101203.54;;;11.99;48.65
73566;BME280;61846;52.970;-3.168;2023-11-21T03:22:14;101218.77;;;11.73;49.52
73566;BME280;61846;52.970;-3.168;2023-11-21T03:24:39;101224.84;;;11.48;51.01
73566;BME280;61846;52.970;-3.168;2023-11-21T03:27:05;101222.79;;;11.81;49.94
73566;BME280;61846;52.970;-3.168;2023-11-21T03:29:30;101224.05;;;12.48;48.21
73566;BME280;61846;52.970;-3.168;2023-11-21T03:31:56;101222.76;;;12.85;48.26
73566;BME280;61846;52.970;-3.168;2023-11-21T03:34:26;101227.37;;;12.47;48.01
73566;BME280;61846;52.970;-3.168;2023-11-21T03:36:47;101229.38;;;12.31;48.42
73566;BME280;61846;52.970;-3.168;2023-11-21T03:39:12;101228.93;;;12.15;48.15
73566;BME280;61846;52.970;-3.168;2023-11-21T03:41:38;101226.21;;;12.66;47.78
73566;BME280;61846;52.970;-3.168;2023-11-21T03:44:04;101227.15;;;12.82;48.33
73566;BME280;61846;52.970;-3.168;2023-11-21T03:46:29;101227.98;;;12.34;48.61
73566;BME280;61846;52.970;-3.168;2023-11-21T03:48:55;101224.96;;;12.11;48.69
73566;BME280;61846;52.970;-3.168;2023-11-21T03:51:20;101227.61;;;10.94;51.12
73566;BME280;61846;52.970;-3.168;2023-11-21T03:53:46;101239.34;;;11.40;51.50
73566;BME280;61846;52.970;-3.168;2023-11-21T03:56:11;101252.07;;;11.05;52.35
73566;BME280;61846;52.970;-3.168;2023-11-21T03:58:37;101255.37;;;10.53;52.07
73566;BME280;61846;52.970;-3.168;2023-11-21T04:01:03;101258.86;;;10.87;51.99
73566;BME280;61846;52.970;-3.168;2023-11-21T04:03:28;101268.27;;;11.39;51.41
73566;BME280;61846;52.970;-3.168;2023-11-21T04:05:53;101260.45;;;12.24;50.08
73566;BME280;61846;52.970;-3.168;2023-11-21T04:08:19;101257.63;;;12.31;48.89
73566;BME280;61846;52.970;-3.168;2023-11-21T04:10:44;101254.76;;;11.62;49.56
73566;BME280;61846;52.970;-3.168;2023-11-21T04:13:10;101250.92;;;11.91;49.98
73566;BME280;61846;52.970;-3.168;2023-11-21T04:15:35;101257.00;;;12.27;49.83
73566;BME280;61846;52.970;-3.168;2023-11-21T04:18:01;101259.07;;;11.30;49.50
73566;BME280;61846;52.970;-3.168;2023-11-21T04:20:26;101267.70;;;11.83;50.17
73566;BME280;61846;52.970;-3.168;2023-11-21T04:22:52;101282.35;;;11.55;49.80
73566;BME280;61846;52.970;-3.168;2023-11-21T04:25:17;101285.68;;;10.37;52.74
73566;BME280;61846;52.970;-3.168;2023-11-21T04:27:44;101300.59;;;9.91;55.34
73566;BME280;61846;52.970;-3.168;2023-11-21T04:30:09;101306.69;;;10.71;53.39
73566;BME280;61846;52.970;-3.168;2023-11-21T04:32:34;101310.20;;;10.17;56.00
73566;BME280;61846;52.970;-3.168;2023-11-21T04:34:59;101315.96;;;9.02;58.89
73566;BME280;61846;52.970;-3.168;2023-11-21T04:37:25;101313.78;;;9.73;56.79
73566;BME280;61846;52.970;-3.168;2023-11-21T04:39:50;101312.66;;;9.66;57.67
73566;BME280;61846;52.970;-3.168;2023-11-21T04:42:16;101307.88;;;9.40;58.43
73566;BME280;61846;52.970;-3.168;2023-11-21T04:44:41;101318.71;;;8.83;59.78
73566;BME280;61846;52.970;-3.168;2023-11-21T04:47:07;101316.30;;;9.75;58.07
73566;BME280;61846;52.970;-3.168;2023-11-21T04:49:33;101320.05;;;9.38;59.57
73566;BME280;61846;52.970;-3.168;2023-11-21T04:51:58;101325.99;;;8.85;61.49
73566;BME280;61846;52.970;-3.168;2023-11-21T04:54:24;101326.93;;;8.93;60.72
73566;BME280;61846;52.970;-3.168;2023-11-21T04:56:50;101330.46;;;9.26;59.82
73566;BME280;61846;52.970;-3.168;2023-11-21T04:59:15;101333.58;;;8.82;60.58
73566;BME280;61846;52.970;-3.168;2023-11-21T05:01:40;101342.21;;;9.14;59.93
73566;BME280;61846;52.970;-3.168;2023-11-21T05:04:06;101343.89;;;9.37;59.70
73566;BME280;61846;52.970;-3.168;2023-11-21T05:06:32;101346.10;;;9.05;59.58
73566;BME280;61846;52.970;-3.168;2023-11-21T05:08:57;101344.63;;;9.88;58.35
73566;BME280;61846;52.970;-3.168;2023-11-21T05:11:24;101348.87;;;10.00;57.76
73566;BME280;61846;52.970;-3.168;2023-11-21T05:13:48;101359.04;;;9.89;57.47
73566;BME280;61846;52.970;-3.168;2023-11-21T05:16:14;101368.60;;;9.92;57.27
73566;BME280;61846;52.970;-3.168;2023-11-21T05:18:40;101371.95;;;10.22;56.20
73566;BME280;61846;52.970;-3.168;2023-11-21T05:21:06;101370.66;;;10.71;54.23
73566;BME280;61846;52.970;-3.168;2023-11-21T05:23:31;101375.57;;;10.42;55.03
73566;BME280;61846;52.970;-3.168;2023-11-21T05:25:57;101384.22;;;10.08;55.07
73566;BME280;61846;52.970;-3.168;2023-11-21T05:28:22;101381.76;;;10.10;55.60
73566;BME280;61846;52.970;-3.168;2023-11-21T05:30:47;101383.99;;;9.93;56.56
73566;BME280;61846;52.970;-3.168;2023-11-21T05:33:13;101392.39;;;9.67;57.12
73566;BME280;61846;52.970;-3.168;2023-11-21T05:35:39;101397.91;;;8.98;59.15
73566;BME280;61846;52.970;-3.168;2023-11-21T05:38:04;101404.52;;;9.04;59.58
73566;BME280;61846;52.970;-3.168;2023-11-21T05:40:30;101407.45;;;9.25;59.53
73566;BME280;61846;52.970;-3.168;2023-11-21T05:42:55;101411.22;;;9.36;58.78
73566;BME280;61846;52.970;-3.168;2023-11-21T05:45:21;101416.38;;;10.54;56.59
73566;BME280;61846;52.970;-3.168;2023-11-21T05:47:47;101421.33;;;10.26;57.65
73566;BME280;61846;52.970;-3.168;2023-11-21T05:50:13;101427.08;;;10.37;56.97
73566;BME280;61846;52.970;-3.168;2023-11-21T05:52:38;101434.58;;;10.43;56.84
73566;BME280;61846;52.970;-3.168;2023-11-21T05:55:04;101440.06;;;11.23;54.86
73566;BME280;61846;52.970;-3.168;2023-11-21T05:57:29;101452.50;;;10.85;55.75
73566;BME280;61846;52.970;-3.168;2023-11-21T05:59:54;101456.09;;;11.32;55.25
73566;BME280;61846;52.970;-3.168;2023-11-21T06:02:20;101458.34;;;11.48;54.45
73566;BME280;61846;52.970;-3.168;2023-11-21T06:04:46;101464.35;;;10.95;55.52
73566;BME280;61846;52.970;-3.168;2023-11-21T06:07:11;101458.70;;;10.43;57.08
73566;BME280;61846;52.970;-3.168;2023-11-21T06:09:37;101463.59;;;8.72;61.79
73566;BME280;61846;52.970;-3.168;2023-11-21T06:12:03;101465.17;;;8.76;61.95
73566;BME280;61846;52.970;-3.168;2023-11-21T06:14:28;101468.38;;;9.16;62.11
73566;BME280;61846;52.970;-3.168;2023-11-21T06:16:53;101470.40;;;8.90;61.59
73566;BME280;61846;52.970;-3.168;2023-11-21T06:19:19;101476.39;;;9.09;61.09
73566;BME280;61846;52.970;-3.168;2023-11-21T06:21:45;101479.05;;;9.28;61.08
73566;BME280;61846;52.970;-3.168;2023-11-21T06:24:10;101479.59;;;9.19;61.08
73566;BME280;61846;52.970;-3.168;2023-11-21T06:26:36;101487.80;;;9.06;60.29
73566;BME280;61846;52.970;-3.168;2023-11-21T06:29:01;101494.51;;;9.67;58.83
73566;BME280;61846;52.970;-3.168;2023-11-21T06:31:27;101496.62;;;9.94;57.37
73566;BME280;61846;52.970;-3.168;2023-11-21T06:33:52;101496.13;;;9.94;57.55
73566;BME280;61846;52.970;-3.168;2023-11-21T06:36:18;101492.93;;;9.74;59.22
73566;BME280;61846;52.970;-3.168;2023-11-21T06:38:44;101492.58;;;9.32;60.02
73566;BME280;61846;52.970;-3.168;2023-11-21T06:41:09;101493.96;;;9.58;60.20
73566;BME280;61846;52.970;-3.168;2023-11-21T06:43:35;101498.11;;;8.85;60.79
73566;BME280;61846;52.970;-3.168;2023-11-21T06:46:00;101499.27;;;9.58;60.16
73566;BME280;61846;52.970;-3.168;2023-11-21T06:48:26;101501.06;;;9.45;59.96
73566;BME280;61846;52.970;-3.168;2023-11-21T06:50:52;101497.85;;;9.74;58.64
73566;BME280;61846;52.970;-3.168;2023-11-21T06:53:17;101494.50;;;9.93;59.52
73566;BME280;61846;52.970;-3.168;2023-11-21T06:55:43;101501.76;;;10.26;57.94
73566;BME280;61846;52.970;-3.168;2023-11-21T06:58:08;101505.07;;;10.42;56.73
73566;BME280;61846;52.970;-3.168;2023-11-21T07:00:34;101506.64;;;10.32;56.46
73566;BME280;61846;52.970;-3.168;2023-11-21T07:03:00;101511.17;;;10.44;56.85
73566;BME280;61846;52.970;-3.168;2023-11-21T07:05:25;101521.67;;;10.63;56.54
73566;BME280;61846;52.970;-3.168;2023-11-21T07:07:51;101529.35;;;10.68;55.55
73566;BME280;61846;52.970;-3.168;2023-11-21T07:10:16;101537.15;;;11.09;54.31
73566;BME280;61846;52.970;-3.168;2023-11-21T07:12:42;101548.68;;;10.29;56.11
73566;BME280;61846;52.970;-3.168;2023-11-21T07:15:08;101549.99;;;10.25;55.86
73566;BME280;61846;52.970;-3.168;2023-11-21T07:17:33;101548.64;;;10.47;55.86
73566;BME280;61846;52.970;-3.168;2023-11-21T07:19:58;101550.17;;;9.76;57.06
73566;BME280;61846;52.970;-3.168;2023-11-21T07:22:24;101553.67;;;9.29;58.69
73566;BME280;61846;52.970;-3.168;2023-11-21T07:24:50;101558.47;;;10.89;56.12
73566;BME280;61846;52.970;-3.168;2023-11-21T07:27:15;101559.63;;;9.93;57.36
73566;BME280;61846;52.970;-3.168;2023-11-21T07:29:41;101553.28;;;9.86;57.37
73566;BME280;61846;52.970;-3.168;2023-11-21T07:32:06;101552.94;;;10.29;56.70
73566;BME280;61846;52.970;-3.168;2023-11-21T07:34:37;101557.05;;;8.78;60.29
73566;BME280;61846;52.970;-3.168;2023-11-21T07:36:57;101562.54;;;7.82;61.92
73566;BME280;61846;52.970;-3.168;2023-11-21T07:39:23;101560.83;;;8.78;60.80
73566;BME280;61846;52.970;-3.168;2023-11-21T07:41:48;101570.63;;;8.91;60.66
73566;BME280;61846;52.970;-3.168;2023-11-21T07:44:15;101577.64;;;9.10;59.75
73566;BME280;61846;52.970;-3.168;2023-11-21T07:46:40;101580.62;;;9.59;58.75
73566;BME280;61846;52.970;-3.168;2023-11-21T07:49:05;101593.44;;;9.58;59.54
73566;BME280;61846;52.970;-3.168;2023-11-21T07:51:31;101592.87;;;9.41;58.91
73566;BME280;61846;52.970;-3.168;2023-11-21T07:53:56;101607.28;;;9.86;58.81
73566;BME280;61846;52.970;-3.168;2023-11-21T07:56:22;101628.51;;;8.44;61.75
73566;BME280;61846;52.970;-3.168;2023-11-21T07:58:48;101620.16;;;8.54;61.58
73566;BME280;61846;52.970;-3.168;2023-11-21T08:01:13;101617.35;;;8.96;59.77
73566;BME280;61846;52.970;-3.168;2023-11-21T08:03:39;101617.96;;;9.41;58.56
73566;BME280;61846;52.970;-3.168;2023-11-21T08:06:05;101618.12;;;9.48;59.87
73566;BME280;61846;52.970;-3.168;2023-11-21T08:08:30;101620.61;;;9.40;59.06
73566;BME280;61846;52.970;-3.168;2023-11-21T08:10:55;101625.88;;;9.46;58.73
73566;BME280;61846;52.970;-3.168;2023-11-21T08:13:21;101633.30;;;10.05;57.10
73566;BME280;61846;52.970;-3.168;2023-11-21T08:15:47;101639.42;;;10.70;55.79
73566;BME280;61846;52.970;-3.168;2023-11-21T08:18:12;101641.01;;;9.90;56.28
73566;BME280;61846;52.970;-3.168;2023-11-21T08:20:38;101641.44;;;10.03;56.96
73566;BME280;61846;52.970;-3.168;2023-11-21T08:23:03;101651.51;;;10.06;57.07
73566;BME280;61846;52.970;-3.168;2023-11-21T08:25:29;101662.82;;;9.65;58.11
73566;BME280;61846;52.970;-3.168;2023-11-21T08:27:54;101666.86;;;9.67;58.27
73566;BME280;61846;52.970;-3.168;2023-11-21T08:30:20;101667.80;;;9.84;57.46
73566;BME280;61846;52.970;-3.168;2023-11-21T08:32:45;101672.29;;;9.17;59.34
73566;BME280;61846;52.970;-3.168;2023-11-21T08:35:11;101664.18;;;10.07;57.67
73566;BME280;61846;52.970;-3.168;2023-11-21T08:37:37;101665.19;;;10.24;57.53
73566;BME280;61846;52.970;-3.168;2023-11-21T08:40:02;101667.56;;;10.36;56.06
73566;BME280;61846;52.970;-3.168;2023-11-21T08:42:28;101677.21;;;10.47;55.28
73566;BME280;61846;52.970;-3.168;2023-11-21T08:44:53;101693.89;;;10.33;56.10
73566;BME280;61846;52.970;-3.168;2023-11-21T08:47:19;101699.95;;;9.12;59.73
73566;BME280;61846;52.970;-3.168;2023-11-21T08:49:44;101709.85;;;9.48;58.18
73566;BME280;61846;52.970;-3.168;2023-11-21T08:52:10;101718.88;;;9.79;58.00
73566;BME280;61846;52.970;-3.168;2023-11-21T08:54:35;101727.60;;;9.77;58.52
73566;BME280;61846;52.970;-3.168;2023-11-21T08:57:02;101730.61;;;9.42;59.20
73566;BME280;61846;52.970;-3.168;2023-11-21T08:59:27;101724.93;;;10.33;56.79
73566;BME280;61846;52.970;-3.168;2023-11-21T09:01:52;101722.45;;;10.17;56.74
73566;BME280;61846;52.970;-3.168;2023-11-21T09:04:18;101719.61;;;10.36;55.72
73566;BME280;61846;52.970;-3.168;2023-11-21T09:06:43;101718.41;;;9.85;56.53
73566;BME280;61846;52.970;-3.168;2023-11-21T09:09:09;101719.44;;;10.94;55.11
73566;BME280;61846;52.970;-3.168;2023-11-21T09:11:34;101719.63;;;10.67;54.80
73566;BME280;61846;52.970;-3.168;2023-11-21T09:14:00;101716.64;;;10.30;55.93
73566;BME280;61846;52.970;-3.168;2023-11-21T09:16:26;101723.56;;;10.64;55.42
73566;BME280;61846;52.970;-3.168;2023-11-21T09:18:51;101721.72;;;11.35;53.73
73566;BME280;61846;52.970;-3.168;2023-11-21T09:21:17;101721.91;;;12.02;52.79
73566;BME280;61846;52.970;-3.168;2023-11-21T09:23:44;101721.40;;;10.67;54.19
73566;BME280;61846;52.970;-3.168;2023-11-21T09:26:08;101720.59;;;10.74;54.91
73566;BME280;61846;52.970;-3.168;2023-11-21T09:28:34;101719.22;;;11.67;52.51
73566;BME280;61846;52.970;-3.168;2023-11-21T09:30:59;101718.51;;;12.13;50.75
73566;BME280;61846;52.970;-3.168;2023-11-21T09:33:25;101719.69;;;12.47;50.91
73566;BME280;61846;52.970;-3.168;2023-11-21T09:35:50;101718.44;;;12.26;49.46
73566;BME280;61846;52.970;-3.168;2023-11-21T09:38:15;101727.87;;;12.51;49.76
73566;BME280;61846;52.970;-3.168;2023-11-21T09:40:41;101740.65;;;11.71;50.46
73566;BME280;61846;52.970;-3.168;2023-11-21T09:43:09;101739.69;;;12.08;50.26
73566;BME280;61846;52.970;-3.168;2023-11-21T09:45:34;101741.01;;;12.60;49.32
73566;BME280;61846;52.970;-3.168;2023-11-21T09:47:57;101765.25;;;11.48;50.88
73566;BME280;61846;52.970;-3.168;2023-11-21T09:50:24;101770.92;;;11.66;50.88
73566;BME280;61846;52.970;-3.168;2023-11-21T09:52:55;101767.27;;;12.59;49.74
73566;BME280;61846;52.970;-3.168;2023-11-21T09:55:15;101773.81;;;11.97;50.65
73566;BME280;61846;52.970;-3.168;2023-11-21T09:57:40;101773.14;;;12.49;49.20
73566;BME280;61846;52.970;-3.168;2023-11-21T10:00:06;101777.00;;;11.96;50.19
73566;BME280;61846;52.970;-3.168;2023-11-21T10:02:33;101775.39;;;12.13;50.21
73566;BME280;61846;52.970;-3.168;2023-11-21T10:04:56;101776.77;;;11.93;49.89
73566;BME280;61846;52.970;-3.168;2023-11-21T10:07:21;101778.76;;;12.77;48.51
73566;BME280;61846;52.970;-3.168;2023-11-21T10:09:47;101782.99;;;13.19;48.96
73566;BME280;61846;52.970;-3.168;2023-11-21T10:12:15;101785.60;;;13.27;47.25
73566;BME280;61846;52.970;-3.168;2023-11-21T10:14:41;101795.74;;;12.61;48.50
73566;BME280;61846;52.970;-3.168;2023-11-21T10:17:03;101790.95;;;12.85;48.05
73566;BME280;61846;52.970;-3.168;2023-11-21T10:19:29;101795.63;;;12.98;47.84
73566;BME280;61846;52.970;-3.168;2023-11-21T10:21:54;101794.89;;;13.14;47.75
73566;BME280;61846;52.970;-3.168;2023-11-21T10:24:19;101797.43;;;12.22;48.42
73566;BME280;61846;52.970;-3.168;2023-11-21T10:26:45;101795.67;;;12.81;47.88
73566;BME280;61846;52.970;-3.168;2023-11-21T10:29:14;101797.87;;;12.76;47.89
73566;BME280;61846;52.970;-3.168;2023-11-21T10:31:36;101801.03;;;12.56;48.16
73566;BME280;61846;52.970;-3.168;2023-11-21T10:34:13;101807.15;;;13.26;47.10
73566;BME280;61846;52.970;-3.168;2023-11-21T10:36:28;101817.05;;;13.38;45.92
73566;BME280;61846;52.970;-3.168;2023-11-21T10:38:54;101826.53;;;12.85;47.16
73566;BME280;61846;52.970;-3.168;2023-11-21T10:41:18;101821.35;;;12.63;48.04
73566;BME280;61846;52.970;-3.168;2023-11-21T10:43:44;101823.22;;;13.47;47.52
73566;BME280;61846;52.970;-3.168;2023-11-21T10:46:09;101815.77;;;12.39;47.26
73566;BME280;61846;52.970;-3.168;2023-11-21T10:48:35;101819.42;;;12.59;47.08
73566;BME280;61846;52.970;-3.168;2023-11-21T10:51:06;101819.51;;;12.55;47.10
73566;BME280;61846;52.970;-3.168;2023-11-21T10:53:29;101822.62;;;12.86;46.51
73566;BME280;61846;52.970;-3.168;2023-11-21T10:56:01;101823.19;;;13.09;45.82
73566;BME280;61846;52.970;-3.168;2023-11-21T10:58:17;101826.98;;;12.62;47.13
73566;BME280;61846;52.970;-3.168;2023-11-21T11:00:48;101830.18;;;12.02;47.27
73566;BME280;61846;52.970;-3.168;2023-11-21T11:03:09;101833.01;;;12.75;47.08
73566;BME280;61846;52.970;-3.168;2023-11-21T11:05:34;101828.36;;;12.67;47.16
73566;BME280;61846;52.970;-3.168;2023-11-21T11:08:02;101823.27;;;12.76;46.18
73566;BME280;61846;52.970;-3.168;2023-11-21T11:10:25;101826.33;;;12.95;47.25
73566;BME280;61846;52.970;-3.168;2023-11-21T11:12:50;101825.14;;;13.46;46.23
73566;BME280;61846;52.970;-3.168;2023-11-21T11:15:16;101829.15;;;11.80;48.85
73566;BME280;61846;52.970;-3.168;2023-11-21T11:17:41;101826.30;;;12.71;46.63
73566;BME280;61846;52.970;-3.168;2023-11-21T11:20:09;101827.84;;;12.31;47.09
73566;BME280;61846;52.970;-3.168;2023-11-21T11:22:37;101834.25;;;13.10;46.00
73566;BME280;61846;52.970;-3.168;2023-11-21T11:25:11;101833.97;;;13.09;45.37
73566;BME280;61846;52.970;-3.168;2023-11-21T11:27:30;101836.12;;;13.16;45.24
73566;BME280;61846;52.970;-3.168;2023-11-21T11:29:56;101832.07;;;13.30;45.06
73566;BME280;61846;52.970;-3.168;2023-11-21T11:32:21;101827.17;;;13.91;43.52
73566;BME280;61846;52.970;-3.168;2023-11-21T11:34:46;101822.74;;;13.68;44.68
73566;BME280;61846;52.970;-3.168;2023-11-21T11:37:06;101821.88;;;13.45;43.59
73566;BME280;61846;52.970;-3.168;2023-11-21T11:39:35;101826.18;;;12.63;45.29
73566;BME280;61846;52.970;-3.168;2023-11-21T11:41:58;101833.49;;;12.71;44.82
73566;BME280;61846;52.970;-3.168;2023-11-21T11:46:47;101834.49;;;13.43;43.52
73566;BME280;61846;52.970;-3.168;2023-11-21T11:51:39;101839.40;;;12.20;44.55
73566;BME280;61846;52.970;-3.168;2023-11-21T11:54:05;101840.23;;;11.78;45.67
73566;BME280;61846;52.970;-3.168;2023-11-21T11:56:31;101848.31;;;10.41;49.58
73566;BME280;61846;52.970;-3.168;2023-11-21T11:58:57;101850.76;;;11.55;46.34
73566;BME280;61846;52.970;-3.168;2023-11-21T12:01:21;101858.48;;;12.48;45.38
73566;BME280;61846;52.970;-3.168;2023-11-21T12:06:12;101868.11;;;11.29;48.38
73566;BME280;61846;52.970;-3.168;2023-11-21T12:08:37;101861.64;;;12.56;44.42
73566;BME280;61846;52.970;-3.168;2023-11-21T12:11:04;101857.38;;;12.93;43.04
73566;BME280;61846;52.970;-3.168;2023-11-21T12:13:28;101864.08;;;12.54;44.89
73566;BME280;61846;52.970;-3.168;2023-11-21T12:15:54;101866.20;;;12.07;44.82
73566;BME280;61846;52.970;-3.168;2023-11-21T12:18:19;101866.92;;;12.88;44.41
73566;BME280;61846;52.970;-3.168;2023-11-21T12:20:45;101874.33;;;12.97;44.83
73566;BME280;61846;52.970;-3.168;2023-11-21T12:23:10;101884.47;;;11.64;46.46
73566;BME280;61846;52.970;-3.168;2023-11-21T12:25:36;101887.85;;;11.76;46.59
73566;BME280;61846;52.970;-3.168;2023-11-21T12:28:02;101881.24;;;11.72;47.70
73566;BME280;61846;52.970;-3.168;2023-11-21T12:30:28;101868.30;;;11.68;46.92
73566;BME280;61846;52.970;-3.168;2023-11-21T12:32:54;101871.23;;;12.60;45.91
73566;BME280;61846;52.970;-3.168;2023-11-21T12:35:19;101878.79;;;11.91;45.87
73566;BME280;61846;52.970;-3.168;2023-11-21T12:37:44;101886.74;;;13.17;44.93
73566;BME280;61846;52.970;-3.168;2023-11-21T12:40:10;101889.41;;;12.94;46.86